createdAt,value
2019-04-04T00:00:36.924Z,11.86
2019-04-04T00:03:03.826Z,11.88
2019-04-04T00:05:30.570Z,11.83
2019-04-04T00:07:58.130Z,11.77
2019-04-04T00:10:26.350Z,11.69
2019-04-04T00:12:52.963Z,11.70
2019-04-04T00:15:19.788Z,11.63
2019-04-04T00:17:46.880Z,11.59
2019-04-04T00:20:14.033Z,11.57
2019-04-04T00:22:40.807Z,11.50
2019-04-04T00:25:09.601Z,11.50
2019-04-04T00:27:36.146Z,11.43
2019-04-04T00:30:03.184Z,11.45
2019-04-04T00:32:30.349Z,11.38
2019-04-04T00:34:57.865Z,11.43
2019-04-04T00:37:25.922Z,11.36
2019-04-04T00:39:52.842Z,11.42
2019-04-04T00:42:19.883Z,11.36
2019-04-04T00:44:46.674Z,11.38
2019-04-04T00:47:13.648Z,11.22
2019-04-04T00:49:40.737Z,11.26
2019-04-04T00:52:09.938Z,11.24
2019-04-04T00:54:36.576Z,11.22
2019-04-04T00:57:03.297Z,11.20
2019-04-04T00:59:29.942Z,11.20
2019-04-04T01:01:57.085Z,11.23
2019-04-04T01:04:25.285Z,11.11
2019-04-04T01:06:51.961Z,11.13
2019-04-04T01:09:19.061Z,11.01
2019-04-04T01:11:45.863Z,10.95
2019-04-04T01:14:12.614Z,10.99
2019-04-04T01:16:39.943Z,10.83
2019-04-04T01:19:09.609Z,10.87
2019-04-04T01:21:35.539Z,10.76
2019-04-04T01:24:02.521Z,10.74
2019-04-04T01:26:29.233Z,10.69
2019-04-04T01:28:56.195Z,10.62
2019-04-04T01:31:23.203Z,10.60
2019-04-04T01:34:09.500Z,10.61
2019-04-04T01:36:36.446Z,10.58
2019-04-04T01:39:44.426Z,10.51
2019-04-04T01:42:11.959Z,10.49
2019-04-04T01:44:40.137Z,10.48
2019-04-04T01:47:08.066Z,10.40
2019-04-04T01:49:35.051Z,10.39
2019-04-04T01:52:01.768Z,10.33
2019-04-04T01:54:29.951Z,10.31
2019-04-04T01:56:57.281Z,10.27
2019-04-04T01:59:24.030Z,10.30
2019-04-04T02:01:51.002Z,10.18
2019-04-04T02:07:27.825Z,10.16
2019-04-04T02:09:55.514Z,10.26
2019-04-04T02:12:22.322Z,10.29
2019-04-04T02:14:49.098Z,10.10
2019-04-04T02:17:15.812Z,9.62
2019-04-04T02:19:43.233Z,9.55
2019-04-04T02:22:10.009Z,9.57
2019-04-04T02:24:36.827Z,9.70
2019-04-04T02:27:04.914Z,9.74
2019-04-04T02:29:32.254Z,9.25
2019-04-04T02:34:47.951Z,9.48
2019-04-04T02:37:14.659Z,9.50
2019-04-04T02:39:41.424Z,9.31
2019-04-04T02:42:08.228Z,9.27
2019-04-04T02:44:35.195Z,9.23
2019-04-04T02:47:01.827Z,9.43
2019-04-04T02:49:29.580Z,9.34
2019-04-04T02:51:57.216Z,8.92
2019-04-04T02:54:25.709Z,9.04
2019-04-04T02:56:53.136Z,9.30
2019-04-04T02:59:21.615Z,8.96
2019-04-04T03:01:48.915Z,8.58
2019-04-04T03:04:15.698Z,8.79
2019-04-04T03:06:42.414Z,8.87
2019-04-04T03:09:10.387Z,8.76
2019-04-04T03:11:37.853Z,8.92
2019-04-04T03:14:17.402Z,8.90
2019-04-04T03:16:44.210Z,8.80
2019-04-04T03:19:11.352Z,8.95
2019-04-04T03:21:39.747Z,8.90
2019-04-04T03:24:07.345Z,8.87
2019-04-04T03:26:35.034Z,8.82
2019-04-04T03:29:04.437Z,8.96
2019-04-04T03:31:36.462Z,8.91
2019-04-04T03:34:08.365Z,8.64
2019-04-04T03:36:30.737Z,8.59
2019-04-04T03:38:56.988Z,8.69
2019-04-04T03:41:23.706Z,8.61
2019-04-04T03:43:50.596Z,8.67
2019-04-04T03:46:17.285Z,8.57
2019-04-04T03:48:44.007Z,8.36
2019-04-04T03:51:11.093Z,8.39
2019-04-04T03:56:20.271Z,8.46
2019-04-04T03:58:46.999Z,8.41
2019-04-04T04:01:14.031Z,8.33
2019-04-04T04:03:41.164Z,8.31
2019-04-04T04:06:09.017Z,8.24
2019-04-04T04:08:36.413Z,8.26
2019-04-04T04:11:05.785Z,8.33
2019-04-04T04:13:32.637Z,8.35
2019-04-04T04:16:12.780Z,8.28
2019-04-04T04:18:40.231Z,8.27
2019-04-04T04:21:10.849Z,8.24
2019-04-04T04:23:37.700Z,8.25
2019-04-04T04:26:08.198Z,8.25
2019-04-04T04:28:33.754Z,8.20
2019-04-04T04:31:01.246Z,8.21
2019-04-04T04:34:09.006Z,8.26
2019-04-04T04:36:35.905Z,8.27
2019-04-04T04:39:02.986Z,8.20
2019-04-04T04:41:29.720Z,8.13
2019-04-04T04:44:05.628Z,8.04
2019-04-04T04:46:33.003Z,8.04
2019-04-04T04:49:00.654Z,8.02
2019-04-04T04:51:29.020Z,7.91
2019-04-04T04:53:56.308Z,7.96
2019-04-04T04:56:23.023Z,7.91
2019-04-04T04:58:50.200Z,7.96
2019-04-04T05:01:18.356Z,8.00
2019-04-04T05:03:45.899Z,8.04
2019-04-04T05:06:13.267Z,7.96
2019-04-04T05:08:41.057Z,7.96
2019-04-04T05:11:09.347Z,8.06
2019-04-04T05:13:36.259Z,8.18
2019-04-04T05:16:05.223Z,8.17
2019-04-04T05:18:44.175Z,8.14
2019-04-04T05:21:24.419Z,8.19
2019-04-04T05:23:41.930Z,8.28
2019-04-04T05:26:28.804Z,8.46
2019-04-04T05:28:57.161Z,8.51
2019-04-04T05:31:25.164Z,8.64
2019-04-04T05:33:52.329Z,8.75
2019-04-04T05:36:19.051Z,8.79
2019-04-04T05:38:47.265Z,8.92
2019-04-04T05:41:34.078Z,9.02
2019-04-04T05:44:01.372Z,9.09
2019-04-04T05:46:28.695Z,9.24
2019-04-04T05:48:55.450Z,9.38
2019-04-04T05:51:22.425Z,9.48
2019-04-04T05:53:49.184Z,9.63
2019-04-04T05:56:15.954Z,9.69
2019-04-04T05:58:42.652Z,9.85
2019-04-04T06:03:58.096Z,10.12
2019-04-04T06:06:24.813Z,10.24
2019-04-04T06:08:51.544Z,10.36
2019-04-04T06:11:20.742Z,10.34
2019-04-04T06:13:47.488Z,10.55
2019-04-04T06:16:14.210Z,10.60
2019-04-04T06:18:42.954Z,10.79
2019-04-04T06:21:09.907Z,10.73
2019-04-04T06:23:36.530Z,10.89
2019-04-04T06:26:06.344Z,11.12
2019-04-04T06:28:32.219Z,11.03
2019-04-04T06:31:00.791Z,11.00
2019-04-04T06:33:27.852Z,11.21
2019-04-04T06:35:54.474Z,11.22
2019-04-04T06:38:23.482Z,11.18
2019-04-04T06:40:49.966Z,11.30
2019-04-04T06:43:16.572Z,11.34
2019-04-04T06:45:46.339Z,11.36
2019-04-04T06:48:12.199Z,11.58
2019-04-04T06:50:42.768Z,11.65
2019-04-04T06:53:07.667Z,11.65
2019-04-04T06:55:39.735Z,11.76
2019-04-04T06:58:03.067Z,11.97
2019-04-04T07:00:29.781Z,11.94
2019-04-04T07:02:56.549Z,12.08
2019-04-04T07:05:23.270Z,12.14
2019-04-04T07:07:49.968Z,12.26
2019-04-04T07:10:16.673Z,12.42
2019-04-04T07:12:43.667Z,12.53
2019-04-04T07:15:12.426Z,12.88
2019-04-04T07:17:40.278Z,13.06
2019-04-04T07:20:48.994Z,13.19
2019-04-04T07:23:16.158Z,13.10
2019-04-04T07:25:43.218Z,12.99
2019-04-04T07:28:09.927Z,12.99
2019-04-04T07:30:36.583Z,13.07
2019-04-04T07:33:03.290Z,13.24
2019-04-04T07:35:30.055Z,13.63
2019-04-04T07:40:37.437Z,13.66
2019-04-04T07:43:08.492Z,14.09
2019-04-04T07:45:34.102Z,14.06
2019-04-04T07:48:01.237Z,14.11
2019-04-04T07:50:27.943Z,14.18
2019-04-04T07:52:55.003Z,14.43
2019-04-04T07:55:21.678Z,14.55
2019-04-04T07:57:50.839Z,14.60
2019-04-04T08:00:17.211Z,14.65
2019-04-04T08:02:44.161Z,14.84
2019-04-04T08:05:13.145Z,15.00
2019-04-04T08:07:39.548Z,15.10
2019-04-04T08:10:19.610Z,14.76
2019-04-04T08:12:35.481Z,14.39
2019-04-04T08:15:02.191Z,14.22
2019-04-04T08:17:28.981Z,14.64
2019-04-04T08:19:59.836Z,14.89
2019-04-04T08:22:24.323Z,14.97
2019-04-04T08:24:51.319Z,15.51
2019-04-04T08:27:17.943Z,15.84
2019-04-04T08:29:44.953Z,16.24
2019-04-04T08:32:11.717Z,16.20
2019-04-04T08:34:38.316Z,16.47
2019-04-04T08:37:05.117Z,16.42
2019-04-04T08:39:31.794Z,16.22
2019-04-04T08:41:58.433Z,16.36
2019-04-04T08:44:25.328Z,16.18
2019-04-04T08:46:52.116Z,16.74
2019-04-04T08:49:18.912Z,16.65
2019-04-04T08:51:46.070Z,17.23
2019-04-04T08:54:13.024Z,16.81
2019-04-04T08:56:40.001Z,16.44
2019-04-04T08:59:07.410Z,17.12
2019-04-04T09:01:34.055Z,16.66
2019-04-04T09:04:00.660Z,17.15
2019-04-04T09:06:27.380Z,17.34
2019-04-04T09:08:54.411Z,17.90
2019-04-04T09:11:21.120Z,17.55
2019-04-04T09:13:47.719Z,17.84
2019-04-04T09:16:14.474Z,18.26
2019-04-04T09:18:41.176Z,18.29
2019-04-04T09:21:07.774Z,18.27
2019-04-04T09:23:34.528Z,17.83
2019-04-04T09:26:05.788Z,17.95
2019-04-04T09:28:29.844Z,17.76
2019-04-04T09:30:56.594Z,17.86
2019-04-04T09:33:23.402Z,17.41
2019-04-04T09:35:50.107Z,17.55
2019-04-04T09:38:17.000Z,18.05
2019-04-04T09:40:44.047Z,17.96
2019-04-04T09:43:10.653Z,17.34
2019-04-04T09:45:37.418Z,17.52
2019-04-04T09:48:04.478Z,18.12
2019-04-04T09:50:31.369Z,18.25
2019-04-04T09:52:58.430Z,18.77
2019-04-04T09:55:25.316Z,18.35
2019-04-04T09:57:52.110Z,18.17
2019-04-04T10:02:54.034Z,18.73
2019-04-04T10:05:20.738Z,19.41
2019-04-04T10:07:47.733Z,18.86
2019-04-04T10:10:55.533Z,18.72
2019-04-04T10:13:22.365Z,19.63
2019-04-04T10:15:49.604Z,19.37
2019-04-04T10:18:16.279Z,19.71
2019-04-04T10:20:42.904Z,19.92
2019-04-04T10:23:12.935Z,19.77
2019-04-04T10:25:38.445Z,19.66
2019-04-04T10:28:05.210Z,19.85
2019-04-04T10:30:31.917Z,19.29
2019-04-04T10:32:58.674Z,19.74
2019-04-04T10:35:25.386Z,20.36
2019-04-04T10:37:52.118Z,20.92
2019-04-04T10:40:19.826Z,19.55
2019-04-04T10:42:46.585Z,20.21
2019-04-04T10:45:54.387Z,20.20
2019-04-04T10:48:21.104Z,20.31
2019-04-04T10:50:47.941Z,19.91
2019-04-04T10:53:14.708Z,19.97
2019-04-04T10:55:41.439Z,20.35
2019-04-04T10:58:08.061Z,20.16
2019-04-04T11:00:35.157Z,20.60
2019-04-04T11:03:01.866Z,20.24
2019-04-04T11:05:28.595Z,19.93
2019-04-04T11:07:56.912Z,19.98
2019-04-04T11:10:24.774Z,19.73
2019-04-04T11:12:52.393Z,20.04
2019-04-04T11:15:20.597Z,20.88
2019-04-04T11:17:47.206Z,20.63
2019-04-04T11:20:13.964Z,20.97
2019-04-04T11:22:40.632Z,21.96
2019-04-04T11:25:07.361Z,21.66
2019-04-04T11:27:34.202Z,21.34
2019-04-04T11:30:13.286Z,20.47
2019-04-04T11:32:40.031Z,20.68
2019-04-04T11:35:06.749Z,21.15
2019-04-04T11:37:33.493Z,21.53
2019-04-04T11:40:00.907Z,20.17
2019-04-04T11:42:27.514Z,20.90
2019-04-04T11:44:54.303Z,21.37
2019-04-04T11:47:21.431Z,21.13
2019-04-04T11:49:48.575Z,19.96
2019-04-04T11:52:16.050Z,19.67
2019-04-04T11:55:02.797Z,19.30
2019-04-04T11:57:29.787Z,19.55
2019-04-04T11:59:56.612Z,20.06
2019-04-04T12:05:12.438Z,20.58
2019-04-04T12:07:39.250Z,20.80
2019-04-04T12:10:47.057Z,20.95
2019-04-04T12:13:13.677Z,21.17
2019-04-04T12:15:40.409Z,20.37
2019-04-04T12:18:07.502Z,20.55
2019-04-04T12:20:34.556Z,20.51
2019-04-04T12:23:01.376Z,20.65
2019-04-04T12:25:28.365Z,20.53
2019-04-04T12:27:55.432Z,20.46
2019-04-04T12:30:22.476Z,20.44
2019-04-04T12:32:49.846Z,20.19
2019-04-04T12:35:16.582Z,20.60
2019-04-04T12:37:43.519Z,20.56
2019-04-04T12:40:20.547Z,20.53
2019-04-04T12:42:39.313Z,20.29
2019-04-04T12:45:07.348Z,20.14
2019-04-04T12:47:34.348Z,20.30
2019-04-04T12:50:01.057Z,20.51
2019-04-04T12:52:27.685Z,20.59
2019-04-04T12:54:54.482Z,20.62
2019-04-04T12:57:21.796Z,20.54
2019-04-04T12:59:49.146Z,20.38
2019-04-04T13:02:15.905Z,20.68
2019-04-04T13:04:42.889Z,20.74
2019-04-04T13:07:09.846Z,20.66
2019-04-04T13:09:36.876Z,20.79
2019-04-04T13:12:04.213Z,20.72
2019-04-04T13:14:31.063Z,20.54
2019-04-04T13:16:58.682Z,20.72
2019-04-04T13:19:25.801Z,20.75
2019-04-04T13:21:52.512Z,20.71
2019-04-04T13:24:19.666Z,20.83
2019-04-04T13:26:46.443Z,20.79
2019-04-04T13:29:13.164Z,20.58
2019-04-04T13:31:40.236Z,20.88
2019-04-04T13:34:20.142Z,20.87
2019-04-04T13:36:46.914Z,20.83
2019-04-04T13:39:16.558Z,20.69
2019-04-04T13:41:43.184Z,20.88
2019-04-04T13:44:10.058Z,20.87
2019-04-04T13:46:36.779Z,20.72
2019-04-04T13:49:45.073Z,20.74
2019-04-04T13:52:11.869Z,20.74
2019-04-04T13:55:19.980Z,20.70
2019-04-04T13:57:47.617Z,20.70
2019-04-04T14:03:10.512Z,20.75
2019-04-04T14:05:37.417Z,20.81
2019-04-04T14:08:04.212Z,20.70
2019-04-04T14:10:31.276Z,20.55
2019-04-04T14:12:58.006Z,20.67
2019-04-04T14:15:25.246Z,20.48
2019-04-04T14:17:52.545Z,20.59
2019-04-04T14:20:19.478Z,20.59
2019-04-04T14:22:47.707Z,20.63
2019-04-04T14:25:15.480Z,20.40
2019-04-04T14:27:42.210Z,20.20
2019-04-04T14:30:50.034Z,20.28
2019-04-04T14:33:16.937Z,20.34
2019-04-04T14:37:29.413Z,20.47
2019-04-04T14:39:56.042Z,20.36
2019-04-04T14:42:22.792Z,20.34
2019-04-04T14:44:49.797Z,20.60
2019-04-04T14:47:16.918Z,20.50
2019-04-04T14:49:45.859Z,20.46
2019-04-04T14:52:12.266Z,20.73
2019-04-04T14:54:39.536Z,20.76
2019-04-04T14:57:07.684Z,20.69
2019-04-04T14:59:34.348Z,20.80
2019-04-04T15:02:01.174Z,20.93
2019-04-04T15:04:28.222Z,20.85
2019-04-04T15:06:55.101Z,21.19
2019-04-04T15:09:21.722Z,20.78
2019-04-04T15:11:48.690Z,20.77
2019-04-04T15:14:15.474Z,20.67
2019-04-04T15:16:42.092Z,20.72
2019-04-04T15:19:08.701Z,20.62
2019-04-04T15:21:35.745Z,20.69
2019-04-04T15:24:02.752Z,20.69
2019-04-04T15:26:29.467Z,20.60
2019-04-04T15:28:56.438Z,20.66
2019-04-04T15:31:23.068Z,20.45
2019-04-04T15:33:50.574Z,20.35
2019-04-04T15:36:18.414Z,20.17
2019-04-04T15:38:45.096Z,20.09
2019-04-04T15:41:12.104Z,19.98
2019-04-04T15:43:38.886Z,19.89
2019-04-04T15:46:05.621Z,20.06
2019-04-04T15:48:32.236Z,20.17
2019-04-04T15:50:59.111Z,20.26
2019-04-04T15:53:25.826Z,20.41
2019-04-04T15:55:52.975Z,20.66
2019-04-04T15:58:20.395Z,20.48
2019-04-04T16:00:47.119Z,20.43
2019-04-04T16:03:14.216Z,20.38
2019-04-04T16:05:41.209Z,20.28
2019-04-04T16:08:07.921Z,20.20
2019-04-04T16:10:34.848Z,20.16
2019-04-04T16:13:01.685Z,20.15
2019-04-04T16:15:28.690Z,20.14
2019-04-04T16:17:55.420Z,20.01
2019-04-04T16:20:22.524Z,20.05
2019-04-04T16:22:49.504Z,19.92
2019-04-04T16:25:16.226Z,19.76
2019-04-04T16:27:43.661Z,19.75
2019-04-04T16:30:51.414Z,19.70
2019-04-04T16:33:18.199Z,19.68
2019-04-04T16:35:44.811Z,19.57
2019-04-04T16:38:11.476Z,19.47
2019-04-04T16:40:51.386Z,19.50
2019-04-04T16:43:18.284Z,19.38
2019-04-04T16:45:44.901Z,19.35
2019-04-04T16:48:13.850Z,19.33
2019-04-04T16:50:40.676Z,19.34
2019-04-04T16:53:07.408Z,19.25
2019-04-04T16:55:34.896Z,19.41
2019-04-04T16:58:01.616Z,19.37
2019-04-04T17:00:28.825Z,19.26
2019-04-04T17:02:55.671Z,19.25
2019-04-04T17:05:22.685Z,19.05
2019-04-04T17:07:49.307Z,18.90
2019-04-04T17:10:16.254Z,18.83
2019-04-04T17:13:02.599Z,18.70
2019-04-04T17:15:29.453Z,18.63
2019-04-04T17:17:56.536Z,18.38
2019-04-04T17:20:23.249Z,18.38
2019-04-04T17:22:50.096Z,18.29
2019-04-04T17:25:16.813Z,18.15
2019-04-04T17:27:43.653Z,17.92
2019-04-04T17:30:51.909Z,17.73
2019-04-04T17:33:19.006Z,17.53
2019-04-04T17:35:45.630Z,17.34
2019-04-04T17:38:13.204Z,17.17
2019-04-04T17:40:40.130Z,17.01
2019-04-04T17:43:07.029Z,16.86
2019-04-04T17:45:33.945Z,16.73
2019-04-04T17:48:00.762Z,16.61
2019-04-04T17:50:27.616Z,16.56
2019-04-04T17:52:55.136Z,16.45
2019-04-04T17:55:24.155Z,16.35
2019-04-04T17:57:54.442Z,16.25
2019-04-04T18:02:57.543Z,16.01
2019-04-04T18:05:24.553Z,15.90
2019-04-04T18:07:51.271Z,15.76
2019-04-04T18:10:18.151Z,15.63
2019-04-04T18:12:45.100Z,15.55
2019-04-04T18:15:33.361Z,15.42
2019-04-04T18:18:00.260Z,15.29
2019-04-04T18:20:26.938Z,15.17
2019-04-04T18:22:54.195Z,15.06
2019-04-04T18:25:20.900Z,14.95
2019-04-04T18:27:47.533Z,14.85
2019-04-04T18:30:14.454Z,14.77
2019-04-04T18:32:41.624Z,14.69
2019-04-04T18:35:49.886Z,14.60
2019-04-04T18:38:17.305Z,14.52
2019-04-04T18:40:44.018Z,14.43
2019-04-04T18:43:11.512Z,14.36
2019-04-04T18:45:38.336Z,14.30
2019-04-04T18:48:05.166Z,14.28
2019-04-04T18:50:32.116Z,14.22
2019-04-04T18:52:58.839Z,14.14
2019-04-04T18:55:25.693Z,14.03
2019-04-04T18:57:52.842Z,13.94
2019-04-04T19:00:19.670Z,13.81
2019-04-04T19:02:46.735Z,13.71
2019-04-04T19:05:13.814Z,13.62
2019-04-04T19:07:40.830Z,13.56
2019-04-04T19:10:48.738Z,13.48
2019-04-04T19:13:15.453Z,13.41
2019-04-04T19:15:42.192Z,13.51
2019-04-04T19:18:08.953Z,13.59
2019-04-04T19:20:35.598Z,13.68
2019-04-04T19:23:02.322Z,13.75
2019-04-04T19:25:29.384Z,13.89
2019-04-04T19:27:56.927Z,13.86
2019-04-04T19:30:24.124Z,13.79
2019-04-04T19:32:50.898Z,13.67
2019-04-04T19:35:17.977Z,13.57
2019-04-04T19:37:44.884Z,13.49
2019-04-04T19:40:53.238Z,13.32
2019-04-04T19:43:20.789Z,13.50
2019-04-04T19:45:47.601Z,13.71
2019-04-04T19:48:15.426Z,14.06
2019-04-04T19:50:42.151Z,14.37
2019-04-04T19:53:09.055Z,14.49
2019-04-04T19:55:38.897Z,14.74
2019-04-04T19:58:05.802Z,14.68
2019-04-04T20:00:33.105Z,14.72
2019-04-04T20:03:00.125Z,14.81
2019-04-04T20:05:27.297Z,14.62
2019-04-04T20:07:54.576Z,14.47
2019-04-04T20:10:22.022Z,14.43
2019-04-04T20:12:48.939Z,14.44
2019-04-04T20:15:15.758Z,14.45
2019-04-04T20:17:42.430Z,14.47
2019-04-04T20:20:50.251Z,14.58
2019-04-04T20:23:17.801Z,14.70
2019-04-04T20:25:44.671Z,14.62
2019-04-04T20:28:12.588Z,14.59
2019-04-04T20:30:39.565Z,14.50
2019-04-04T20:33:07.019Z,14.74
2019-04-04T20:35:34.559Z,14.51
2019-04-04T20:38:02.531Z,14.49
2019-04-04T20:40:30.016Z,14.49
2019-04-04T20:42:57.850Z,14.33
2019-04-04T20:45:24.705Z,14.27
2019-04-04T20:47:51.738Z,14.35
2019-04-04T20:50:19.131Z,14.26
2019-04-04T20:52:46.160Z,14.34
2019-04-04T20:55:13.557Z,14.39
2019-04-04T20:57:40.944Z,14.42
2019-04-04T21:00:08.680Z,14.40
2019-04-04T21:02:35.651Z,14.33
2019-04-04T21:05:02.699Z,14.32
2019-04-04T21:07:29.623Z,14.33
2019-04-04T21:09:57.154Z,14.30
2019-04-04T21:12:24.450Z,14.41
2019-04-04T21:14:51.561Z,14.30
2019-04-04T21:20:06.740Z,14.31
2019-04-04T21:22:33.687Z,14.15
2019-04-04T21:25:00.894Z,13.95
2019-04-04T21:27:27.930Z,13.90
2019-04-04T21:29:55.277Z,13.84
2019-04-04T21:32:22.435Z,13.79
2019-04-04T21:34:49.117Z,13.80
2019-04-04T21:37:15.849Z,13.70
2019-04-04T21:39:42.573Z,13.69
2019-04-04T21:42:09.541Z,13.70
2019-04-04T21:44:36.182Z,13.62
2019-04-04T21:47:02.910Z,13.64
2019-04-04T21:49:30.173Z,13.57
2019-04-04T21:52:09.628Z,13.65
2019-04-04T21:54:36.351Z,13.61
2019-04-04T21:57:03.174Z,13.57
2019-04-04T21:59:29.910Z,13.47
2019-04-04T22:01:57.180Z,13.59
2019-04-04T22:04:23.809Z,13.51
2019-04-04T22:06:50.528Z,13.32
2019-04-04T22:11:56.223Z,13.40
2019-04-04T22:14:22.943Z,13.38
2019-04-04T22:16:49.551Z,13.33
2019-04-04T22:19:16.228Z,13.32
2019-04-04T22:21:42.939Z,13.17
2019-04-04T22:24:09.983Z,13.23
2019-04-04T22:26:36.853Z,13.23
2019-04-04T22:29:03.582Z,13.24
2019-04-04T22:31:30.506Z,13.03
2019-04-04T22:33:57.671Z,12.83
2019-04-04T22:36:24.291Z,12.94
2019-04-04T22:38:50.914Z,12.97
2019-04-04T22:41:17.677Z,12.90
2019-04-04T22:43:44.393Z,13.03
2019-04-04T22:46:11.558Z,12.97
2019-04-04T22:48:38.263Z,12.99
2019-04-04T22:51:05.268Z,12.98
2019-04-04T22:53:32.044Z,12.79
2019-04-04T22:55:59.240Z,12.77
2019-04-04T22:58:28.529Z,12.69
2019-04-04T23:00:54.531Z,12.60
2019-04-04T23:06:00.028Z,12.52
2019-04-04T23:08:27.061Z,12.51
2019-04-04T23:10:53.683Z,12.50
2019-04-04T23:13:20.944Z,12.48
2019-04-04T23:15:48.099Z,12.38
2019-04-04T23:18:15.166Z,12.30
2019-04-04T23:20:41.931Z,12.34
2019-04-04T23:23:08.943Z,12.35
2019-04-04T23:25:35.719Z,12.31
2019-04-04T23:28:02.493Z,12.31
2019-04-04T23:30:29.110Z,12.24
2019-04-04T23:32:55.746Z,12.19
2019-04-04T23:35:22.535Z,12.20
2019-04-04T23:37:49.258Z,12.28
2019-04-04T23:40:16.422Z,12.26
2019-04-04T23:42:43.089Z,12.27
2019-04-04T23:45:09.804Z,12.31
2019-04-04T23:47:42.615Z,12.32
2019-04-04T23:50:46.781Z,12.20
2019-04-04T23:53:13.409Z,12.15
2019-04-04T23:55:40.362Z,12.18
2019-04-04T23:58:07.139Z,12.10
